Valley City, Illinois
Current Conditions -  °F | °C
As of 8:35 PM on Thursday 20 Nov 2014 (Local Time) from KPPQ Reporting Station
Clear Clear  
Wind Chill: -6°   Ceiling: Unl
Heat Index: -6°   Visibility: 10mi
Dew Point: -10°   Wind: 3mph
Humidity: 72%   Direction: 320°NW
Pressure: 30.29"   Gusts: NA
Location:  39.7046°N, 90.7176°W
Report Text: KPPQ 210235Z AUTO 32003KT 10SM CLR M06/M10 A3029 RMK AO2 T10601103 PWINO
Loading
Personal Weather Stations






























Interactive Weather Map New forecast layout! Learn more

10-Day Weather Forecast

Advertisements
Track Severe Weather on mobile